McHenry, IL

1:06 PM CST on December 18, 2014 (GMT -0600)
Glacier Ridge - West Side | Change Station
CLOSE
Current Station
Personal Weather Station
Location: McHenry, IL
Elevation: 925 ft
Nearby Weather Stations

Elev 925 ft 42.35 °N, 88.33 °W | Updated 1 minute ago

Overcast
Overcast
28.6 °F
Feels Like 29 °F
N
0.2
Wind Variable Wind from WSW
Gusts 4.7 mph

Today
High -- | Low -- °F
--% Chance of Precip.
Yesterday
High -- | Low -- °F
Precip. -- in
7:17 AM 4:22 PM
Waning Crescent, 13% visible
Pressure 30.27 in
Visibility 10.0 miles
Clouds Overcast 2600 ft
Windchill 29 °F
Dew Point 21 °F
Humidity 73%
Rainfall 0.00 in
Snow Depth Not available.
UV 1 out of 12
Pollen .10 out of 12
Air Quality Not available.
Flu Activity Not available.
METAR KUGN 181855Z 28004KT 10SM OVC026 M03/M07 A3022 RMK AO2 SLP251 T10281072

More Conditions Fewer Conditions

Pressure 30.27 in
Visibility 10.0 miles
Clouds Overcast 2600 ft
Windchill 29 °F
Dew Point 21 °F
Humidity 73%
Rainfall 0.00 in
Snow Depth Not available.
UV 1 out of 12
Pollen .10 out of 12
Air Quality Not available.
Flu Activity Not available.
METAR KUGN 181855Z 28004KT 10SM OVC026 M03/M07 A3022 RMK AO2 SLP251 T10281072

More Conditions Fewer Conditions

10-Day Weather Forecast

Almanac

Astronomy

Dec. 18, 2014 Rise Set
Actual Time
Civil Twilight
Nautical Twilight
Astronomical Twilight
Moon
Length of Visible Light
Length of Day
Tomorrow will be .
, % of the Moon is Illuminated

Today's Extremes

State Highs State Lows

Community

WunderPhotos

Upload Photos

1,778,982 photos uploaded!

WunderBlogs® & News

Nearby

Air Quality

  Air Quality AQ Index Pollutant
Not available.

Snow Depth

Station Depth Elevation

Earthquake Activity

City Distance Mag. Time & Date
Minimum magnitude displayed is 2.5.

Coastal Water Temperatures

Place Temperature

Nearby Weather Stations